Terminal Aerodrome Forecast
Issued by NWS Mt. Holly, NJ

Current Version | Previous Version | Text Only | Print | Product List | Glossary On
Versions: 1 2 3 4 5 6 7 8 9 10 11 12 13 14 15 16 17 18 19
340
FTUS41 KPHI 241720
TAFABE
TAF
KABE 241720Z 2418/2518 31009KT P6SM FEW080
     FM241900 27007KT P6SM VCSH SCT080
     FM242200 VRB03KT P6SM SKC
     FM251500 27006KT P6SM FEW200=

USA.gov is the U.S. government's official web portal to all federal, state and local government web resources and services.